Keady, United Kingdom
Current Conditions -  °F | °C
As of 5:20 PM on Thursday 23 Oct 2014 (Local Time) from EGAA Reporting Station
Broken Clouds Broken Clouds  
Wind Chill: 57°   Ceiling: 1900
Heat Index: 57°   Visibility: 6mi
Dew Point: 54°   Wind: 13mph
Humidity: 88%   Direction: 220°SW
Pressure: 29.74"   Gusts: 25mph
Location:  54.25°N, 6.7°W
Report Text: EGAA 231620Z 22011G22KT 9999 FEW013 BKN019 BKN024 14/12 Q1007
Loading
Personal Weather Stations






























Interactive Weather Map New forecast layout! Learn more

10-Day Weather Forecast

Advertisements
Track Severe Weather on mobile